Time;durP1;ratioP1;P1;durP2;ratioP2;P2;SDS_P1;SDS_P2;PMS_P1;PMS_P2;Temp;Humidity;BMP_temperature;BMP_pressure;BME280_temperature;BME280_humidity;BME280_pressure;Samples;Min_cycle;Max_cycle;Signal;HPM_P1;HPM_P2
2023/04/05 00:00:51;;;;;;;11.73;6.90;;;3.20;99.90;;;;;;5093569;28;20436;-63
2023/04/05 00:03:19;;;;;;;9.60;6.35;;;3.20;99.90;;;;;;5093729;28;20051;-63
2023/04/05 00:05:48;;;;;;;10.20;6.13;;;3.20;99.90;;;;;;5092393;28;20536;-63
2023/04/05 00:08:25;;;;;;;9.57;7.25;;;3.10;99.90;;;;;;5093330;28;20048;-65
2023/04/05 00:10:52;;;;;;;9.75;6.63;;;3.10;99.90;;;;;;5093272;28;20083;-64
2023/04/05 00:13:20;;;;;;;10.15;6.45;;;3.00;99.90;;;;;;5093640;28;20060;-63
2023/04/05 00:15:48;;;;;;;12.30;6.80;;;3.00;99.90;;;;;;5092358;28;20156;-65
2023/04/05 00:18:20;;;;;;;12.32;7.07;;;3.00;99.90;;;;;;5093174;28;20051;-63
2023/04/05 00:20:48;;;;;;;10.68;6.20;;;2.90;99.90;;;;;;5092848;28;20059;-63
2023/04/05 00:23:16;;;;;;;11.70;7.28;;;2.90;99.90;;;;;;5093141;28;20445;-63
2023/04/05 00:25:43;;;;;;;9.20;6.40;;;2.90;99.90;;;;;;5092588;28;20058;-63
2023/04/05 00:28:11;;;;;;;10.05;6.55;;;2.80;99.90;;;;;;5074860;28;20081;-63
2023/04/05 00:30:38;;;;;;;10.43;6.68;;;2.80;99.90;;;;;;5075004;28;20052;-63
2023/04/05 00:33:04;;;;;;;11.95;6.18;;;2.80;99.90;;;;;;5092539;28;20052;-63
2023/04/05 00:35:31;;;;;;;11.00;6.10;;;2.80;99.90;;;;;;5073909;28;20058;-64
2023/04/05 00:38:03;;;;;;;;;;;2.80;99.90;;;;;;5093262;28;20080;-63
2023/04/05 00:40:36;;;;;;;8.45;6.53;;;2.80;99.90;;;;;;5092631;28;20022;-63
2023/04/05 00:43:03;;;;;;;11.02;6.68;;;2.70;99.90;;;;;;5074295;28;20428;-64
2023/04/05 00:45:30;;;;;;;10.32;6.80;;;2.70;99.90;;;;;;5073677;28;20047;-64
2023/04/05 00:47:56;;;;;;;11.90;7.15;;;2.70;99.90;;;;;;5092070;28;20449;-64
2023/04/05 00:50:23;;;;;;;12.40;7.03;;;2.70;99.90;;;;;;5092605;28;20102;-64
2023/04/05 00:52:50;;;;;;;9.35;7.05;;;2.60;99.90;;;;;;5092696;28;20090;-64
2023/04/05 00:55:17;;;;;;;12.88;7.32;;;2.60;99.90;;;;;;5091560;28;20052;-63
2023/04/05 00:57:44;;;;;;;9.55;6.80;;;2.60;99.90;;;;;;5092475;28;20076;-63
2023/04/05 01:00:10;;;;;;;9.15;6.78;;;2.60;99.90;;;;;;5092241;28;20040;-63
2023/04/05 01:03:05;;;;;;;11.32;7.03;;;2.60;99.90;;;;;;5092280;28;20048;-63
2023/04/05 01:05:54;;;;;;;13.48;8.82;;;2.50;99.90;;;;;;5091682;28;20356;-64
2023/04/05 01:08:53;;;;;;;11.18;7.40;;;2.50;99.90;;;;;;5092346;28;20059;-63
2023/04/05 01:11:20;;;;;;;13.00;8.85;;;2.50;99.90;;;;;;5074085;28;20048;-64
2023/04/05 01:13:48;;;;;;;10.05;7.00;;;2.50;99.90;;;;;;5092174;28;20059;-63
2023/04/05 01:16:15;;;;;;;12.05;7.85;;;2.50;99.90;;;;;;5091202;28;20388;-64
2023/04/05 01:18:45;;;;;;;10.32;6.82;;;2.50;99.90;;;;;;5092153;28;20086;-64
2023/04/05 01:21:38;;;;;;;11.20;7.43;;;2.40;99.90;;;;;;5091863;28;20043;-63
2023/04/05 01:24:27;;;;;;;14.07;7.47;;;2.40;99.90;;;;;;5092123;28;20056;-64
2023/04/05 01:27:06;;;;;;;10.65;6.60;;;2.40;99.90;;;;;;5071280;28;20084;-64
2023/04/05 01:29:52;;;;;;;13.20;7.78;;;2.40;99.90;;;;;;5071810;28;20044;-63
2023/04/05 01:32:50;;;;;;;9.93;7.75;;;2.30;99.90;;;;;;5054024;28;20124;-64
2023/04/05 01:35:38;;;;;;;10.50;6.40;;;2.30;99.90;;;;;;5062074;28;20413;-64
2023/04/05 01:38:16;;;;;;;14.00;8.00;;;2.30;99.90;;;;;;5092087;28;20400;-64
2023/04/05 01:40:42;;;;;;;12.88;6.82;;;2.30;99.90;;;;;;5092008;28;20505;-65
2023/04/05 01:43:14;;;;;;;11.57;6.85;;;2.30;99.90;;;;;;5074083;28;20044;-63
2023/04/05 01:45:49;;;;;;;9.80;6.43;;;2.30;99.90;;;;;;5091484;28;20079;-63
2023/04/05 01:48:16;;;;;;;8.57;6.68;;;2.30;99.90;;;;;;5091755;28;20399;-65
2023/04/05 01:50:43;;;;;;;;;;;2.30;99.90;;;;;;5092410;28;20056;-64
2023/04/05 01:53:10;;;;;;;10.95;7.57;;;2.30;99.90;;;;;;5091921;28;19920;-64
2023/04/05 01:55:36;;;;;;;10.80;6.68;;;2.30;99.90;;;;;;5091548;28;20076;-63
2023/04/05 01:58:02;;;;;;;10.68;7.40;;;2.20;99.90;;;;;;5091939;28;20074;-64
2023/04/05 02:00:29;;;;;;;10.95;6.78;;;2.20;99.90;;;;;;5091875;28;20048;-65
2023/04/05 02:03:02;;;;;;;10.52;6.65;;;2.20;99.90;;;;;;5091373;28;20040;-64
2023/04/05 02:05:29;;;;;;;8.63;5.95;;;2.20;99.90;;;;;;5072327;28;20044;-65
2023/04/05 02:07:55;;;;;;;10.13;6.72;;;2.10;99.90;;;;;;5091733;28;20526;-64
2023/04/05 02:10:22;;;;;;;10.00;7.28;;;2.10;99.90;;;;;;5091741;28;20094;-63
2023/04/05 02:12:48;;;;;;;12.02;7.68;;;2.10;99.90;;;;;;5074976;28;20410;-62
2023/04/05 02:15:15;;;;;;;;;;;2.00;99.90;;;;;;5095277;28;20040;-64
2023/04/05 02:17:45;;;;;;;12.38;6.72;;;2.00;99.90;;;;;;5094899;28;19931;-64
2023/04/05 02:20:13;;;;;;;10.63;6.90;;;2.00;99.90;;;;;;5077605;28;20499;-64
2023/04/05 02:22:43;;;;;;;10.40;7.15;;;1.90;99.90;;;;;;5095752;28;20110;-63
2023/04/05 02:25:11;;;;;;;10.57;6.60;;;1.90;99.90;;;;;;5095407;28;20448;-63
2023/04/05 02:27:37;;;;;;;10.70;7.30;;;1.80;99.90;;;;;;5095211;28;20063;-63
2023/04/05 02:30:12;;;;;;;10.95;6.80;;;1.80;99.90;;;;;;5095340;28;20075;-64
2023/04/05 02:32:46;;;;;;;8.73;6.22;;;1.80;99.90;;;;;;5095348;28;20085;-64
2023/04/05 02:35:13;;;;;;;10.90;7.10;;;1.80;99.90;;;;;;5094449;28;20079;-64
2023/04/05 02:37:42;;;;;;;11.27;6.60;;;1.80;99.90;;;;;;5095219;28;20079;-64
2023/04/05 02:40:13;;;;;;;12.95;7.35;;;1.80;99.90;;;;;;5077114;28;20048;-64
2023/04/05 02:42:40;;;;;;;11.00;7.22;;;1.70;99.90;;;;;;5077464;28;20056;-63
2023/04/05 02:45:07;;;;;;;13.98;7.85;;;1.70;99.90;;;;;;5076467;28;20048;-64
2023/04/05 02:47:40;;;;;;;13.57;7.20;;;1.70;99.90;;;;;;5095035;28;20133;-65
2023/04/05 02:50:19;;;;;;;12.85;7.03;;;1.70;99.90;;;;;;5094846;28;20048;-65
2023/04/05 02:52:50;;;;;;;12.38;7.18;;;1.70;99.90;;;;;;5094758;28;20063;-65
2023/04/05 02:55:16;;;;;;;10.45;7.63;;;1.70;99.90;;;;;;5093734;28;20048;-65
2023/04/05 02:57:43;;;;;;;12.85;8.18;;;1.70;99.90;;;;;;5076679;28;20048;-62
2023/04/05 03:00:10;;;;;;;14.07;7.90;;;1.60;99.90;;;;;;5094946;28;20136;-65
2023/04/05 03:02:41;;;;;;;12.70;8.18;;;1.60;99.90;;;;;;5094711;28;20036;-63
2023/04/05 03:05:12;;;;;;;11.20;7.88;;;1.60;99.90;;;;;;5093957;28;20082;-65
2023/04/05 03:07:41;;;;;;;12.00;7.60;;;1.60;99.90;;;;;;5094710;28;20060;-63
2023/04/05 03:10:08;;;;;;;12.35;7.85;;;1.60;99.90;;;;;;5094631;28;20094;-63
2023/04/05 03:12:34;;;;;;;10.77;7.22;;;1.50;99.90;;;;;;5094426;28;20098;-64
2023/04/05 03:15:01;;;;;;;13.48;8.15;;;1.50;99.90;;;;;;5075768;28;20154;-64
2023/04/05 03:17:28;;;;;;;11.85;7.30;;;1.50;99.90;;;;;;5076459;28;20085;-64
2023/04/05 03:19:54;;;;;;;;;;;1.50;99.90;;;;;;5076462;28;20080;-64
2023/04/05 03:22:20;;;;;;;10.55;7.80;;;1.40;99.90;;;;;;5076226;28;19927;-63
2023/04/05 03:24:48;;;;;;;12.23;7.57;;;1.30;99.90;;;;;;5092699;28;20083;-64
2023/04/05 03:27:17;;;;;;;11.23;7.60;;;1.30;99.90;;;;;;5093672;28;20098;-65
2023/04/05 03:29:45;;;;;;;14.88;8.18;;;1.30;99.90;;;;;;5094013;28;20451;-65
2023/04/05 03:32:12;;;;;;;11.30;7.82;;;1.20;99.90;;;;;;5093697;28;20496;-63
2023/04/05 03:34:38;;;;;;;12.20;7.68;;;1.30;99.90;;;;;;5058589;28;20048;-64
2023/04/05 03:37:05;;;;;;;;;;;1.30;99.90;;;;;;5094251;28;20769;-62
2023/04/05 03:39:37;;;;;;;10.63;7.80;;;1.20;99.90;;;;;;5093742;28;19935;-63
2023/04/05 03:42:04;;;;;;;14.82;8.60;;;1.20;99.90;;;;;;5093928;28;20044;-64
2023/04/05 03:44:31;;;;;;;11.70;7.45;;;1.20;99.90;;;;;;5092602;28;20380;-63
2023/04/05 03:46:58;;;;;;;12.07;7.65;;;1.10;99.90;;;;;;5093584;28;20126;-63
2023/04/05 03:49:25;;;;;;;12.85;8.60;;;1.10;99.90;;;;;;5075725;28;20109;-64
2023/04/05 03:51:51;;;;;;;11.40;7.60;;;1.10;99.90;;;;;;5093711;28;20114;-64
2023/04/05 03:54:23;;;;;;;;;;;1.50;99.90;;;;;;5093955;28;20087;-64
2023/04/05 03:56:51;;;;;;;13.18;8.35;;;1.10;99.90;;;;;;5093429;28;19930;-62
2023/04/05 03:59:17;;;;;;;12.43;7.72;;;1.00;99.90;;;;;;5092991;28;20411;-63
2023/04/05 04:01:43;;;;;;;;;;;1.00;99.90;;;;;;5093137;28;20387;-63
2023/04/05 04:04:12;;;;;;;13.13;9.00;;;1.00;99.90;;;;;;5093322;28;20334;-63
2023/04/05 04:06:38;;;;;;;11.32;8.13;;;0.90;99.90;;;;;;5074766;28;20127;-63
2023/04/05 04:09:06;;;;;;;;;;;0.90;99.90;;;;;;5075872;28;20129;-64
2023/04/05 04:11:33;;;;;;;10.95;8.38;;;0.90;99.90;;;;;;5093289;28;19960;-64
2023/04/05 04:13:59;;;;;;;13.50;9.52;;;0.90;99.90;;;;;;5093000;28;20052;-63
2023/04/05 04:16:25;;;;;;;;;;;0.80;99.90;;;;;;5092939;28;20052;-64
2023/04/05 04:18:53;;;;;;;13.10;8.13;;;0.80;99.90;;;;;;5094040;28;20236;-63
2023/04/05 04:21:34;;;;;;;10.40;7.57;;;0.80;99.90;;;;;;5093174;28;20040;-63
2023/04/05 04:24:01;;;;;;;11.80;9.02;;;0.80;99.90;;;;;;5075037;28;20059;-64
2023/04/05 04:26:27;;;;;;;14.32;9.10;;;0.80;99.90;;;;;;5091995;28;20092;-63
2023/04/05 04:28:55;;;;;;;12.60;9.07;;;0.80;99.90;;;;;;5092843;28;20079;-64
2023/04/05 04:31:21;;;;;;;13.52;8.65;;;0.90;99.90;;;;;;5074906;28;20491;-63
2023/04/05 04:33:49;;;;;;;12.55;8.93;;;0.80;99.90;;;;;;5074998;28;20055;-63
2023/04/05 04:36:17;;;;;;;17.02;9.45;;;0.90;99.90;;;;;;5091258;28;20055;-63
2023/04/05 04:38:43;;;;;;;11.45;7.90;;;0.90;99.90;;;;;;5075053;28;20067;-63
2023/04/05 04:41:10;;;;;;;12.20;8.23;;;0.90;99.90;;;;;;5092552;28;20501;-65
2023/04/05 04:43:41;;;;;;;11.60;8.32;;;0.80;99.90;;;;;;5092835;28;20094;-64
2023/04/05 04:46:13;;;;;;;14.35;8.43;;;0.80;99.90;;;;;;5073778;28;20071;-62
2023/04/05 04:48:41;;;;;;;14.50;8.82;;;0.80;99.90;;;;;;5092489;28;20056;-63
2023/04/05 04:51:07;;;;;;;12.68;8.73;;;0.80;99.90;;;;;;5092646;28;20460;-64
2023/04/05 04:53:33;;;;;;;15.30;9.57;;;0.70;99.90;;;;;;5092607;28;20040;-63
2023/04/05 04:56:00;;;;;;;;;;;0.70;99.90;;;;;;5091822;28;20036;-64
2023/04/05 04:58:26;;;;;;;12.38;8.93;;;0.80;99.90;;;;;;5090931;28;19967;-63
2023/04/05 05:00:52;;;;;;;;;;;0.70;99.90;;;;;;5091647;28;20083;-62
2023/04/05 05:03:21;;;;;;;11.82;8.65;;;0.70;99.90;;;;;;5073832;28;19970;-63
2023/04/05 05:05:52;;;;;;;12.52;9.35;;;0.70;99.90;;;;;;5087876;28;20063;-62
2023/04/05 05:08:18;;;;;;;12.10;8.15;;;0.80;99.90;;;;;;5091296;28;20115;-63
2023/04/05 05:10:45;;;;;;;12.80;9.98;;;0.80;99.90;;;;;;5091261;28;20379;-64
2023/04/05 05:13:12;;;;;;;16.52;9.07;;;0.80;99.90;;;;;;5091654;28;20044;-63
2023/04/05 05:15:41;;;;;;;15.15;9.15;;;0.80;99.90;;;;;;5091034;28;20036;-63
2023/04/05 05:18:08;;;;;;;15.77;8.80;;;0.80;99.90;;;;;;5091944;28;20507;-64
2023/04/05 05:20:34;;;;;;;;;;;0.70;99.90;;;;;;5092231;28;20087;-64
2023/04/05 05:23:02;;;;;;;10.95;8.38;;;0.80;99.90;;;;;;5092295;28;19924;-63
2023/04/05 05:25:30;;;;;;;15.60;9.55;;;0.80;99.90;;;;;;5057033;28;20032;-63
2023/04/05 05:27:57;;;;;;;12.65;9.43;;;0.80;99.90;;;;;;5057136;28;20048;-64
2023/04/05 05:30:23;;;;;;;12.45;8.82;;;0.80;99.90;;;;;;5092073;28;20126;-62
2023/04/05 05:32:49;;;;;;;14.30;8.93;;;0.80;99.90;;;;;;5073947;28;20146;-62
2023/04/05 05:35:15;;;;;;;;;;;0.80;99.90;;;;;;5056666;28;20055;-64
2023/04/05 05:37:48;;;;;;;14.30;9.35;;;0.90;99.90;;;;;;5091894;28;19920;-64
2023/04/05 05:40:15;;;;;;;;;;;0.90;99.90;;;;;;5092189;28;20123;-63
2023/04/05 05:42:42;;;;;;;16.30;9.55;;;0.80;99.90;;;;;;5073810;28;19995;-63
2023/04/05 05:45:08;;;;;;;;;;;0.90;99.90;;;;;;5091766;28;20077;-63
2023/04/05 05:47:35;;;;;;;12.75;9.18;;;0.90;99.90;;;;;;5093988;28;19937;-62
2023/04/05 05:50:01;;;;;;;16.58;10.27;;;1.20;99.90;;;;;;5095848;28;20126;-62
2023/04/05 05:52:27;;;;;;;15.18;10.40;;;2.00;99.90;;;;;;5096113;28;20048;-64
2023/04/05 05:54:54;;;;;;;14.45;9.50;;;2.80;99.90;;;;;;5095656;28;20052;-63
2023/04/05 05:57:20;;;;;;;14.80;9.77;;;3.60;99.90;;;;;;5096114;28;20448;-62
2023/04/05 05:59:46;;;;;;;;;;;4.30;99.90;;;;;;5096305;28;20132;-63
2023/04/05 06:02:13;;;;;;;14.30;9.43;;;4.60;99.90;;;;;;5095960;28;19951;-63
2023/04/05 06:04:41;;;;;;;14.50;9.85;;;5.30;99.90;;;;;;5095749;28;20110;-63
2023/04/05 06:07:07;;;;;;;20.23;9.93;;;5.80;99.90;;;;;;5096100;28;20044;-64
2023/04/05 06:09:34;;;;;;;15.48;10.38;;;6.00;99.90;;;;;;5095680;28;20515;-65
2023/04/05 06:12:00;;;;;;;14.38;10.43;;;6.40;99.90;;;;;;5078003;28;20066;-65
2023/04/05 06:14:28;;;;;;;16.10;10.00;;;6.70;99.90;;;;;;5096055;28;20048;-64
2023/04/05 06:17:01;;;;;;;11.95;9.88;;;6.70;99.90;;;;;;5095887;28;20105;-64
2023/04/05 06:19:29;;;;;;;13.95;9.73;;;7.00;99.90;;;;;;5077696;28;20044;-63
2023/04/05 06:21:55;;;;;;;14.68;11.63;;;6.90;99.90;;;;;;5095471;28;20052;-64
2023/04/05 06:24:22;;;;;;;16.25;10.45;;;7.20;99.90;;;;;;5095543;28;20048;-64
2023/04/05 06:26:50;;;;;;;26.20;11.63;;;6.70;99.90;;;;;;5094682;28;20131;-64
2023/04/05 06:29:22;;;;;;;15.82;10.15;;;6.80;99.90;;;;;;5095355;28;20137;-65
2023/04/05 06:31:53;;;;;;;15.88;9.48;;;7.00;99.90;;;;;;5094969;28;20048;-64
2023/04/05 06:34:21;;;;;;;14.52;10.73;;;7.20;99.90;;;;;;5094624;28;20072;-63
2023/04/05 06:36:47;;;;;;;14.73;9.98;;;7.50;99.90;;;;;;5095126;28;20116;-63
2023/04/05 06:39:13;;;;;;;13.55;9.40;;;7.70;99.90;;;;;;5092781;28;20388;-63
2023/04/05 06:41:43;;;;;;;10.60;9.02;;;7.90;99.90;;;;;;5095558;28;20106;-64
2023/04/05 06:44:10;;;;;;;15.23;9.45;;;8.00;99.90;;;;;;5095244;28;20433;-65
2023/04/05 06:46:42;;;;;;;18.02;10.20;;;8.30;99.90;;;;;;5094376;28;20434;-63
2023/04/05 06:49:09;;;;;;;12.05;9.80;;;8.40;99.90;;;;;;5090090;28;20054;-64
2023/04/05 06:51:44;;;;;;;14.18;10.48;;;8.40;99.90;;;;;;5074404;28;20060;-64
2023/04/05 06:54:17;;;;;;;12.77;8.93;;;8.70;99.90;;;;;;5080925;28;20097;-64
2023/04/05 06:56:43;;;;;;;13.10;9.77;;;8.70;99.90;;;;;;5094377;28;20091;-64
2023/04/05 06:59:09;;;;;;;13.43;11.40;;;8.70;99.90;;;;;;5094342;28;20036;-64
2023/04/05 07:01:36;;;;;;;13.32;9.95;;;8.70;99.90;;;;;;5095173;28;20066;-64
2023/04/05 07:04:08;;;;;;;12.68;9.65;;;8.90;99.90;;;;;;5094880;28;20043;-63
2023/04/05 07:06:37;;;;;;;13.05;10.32;;;8.70;99.90;;;;;;5094548;28;20582;-65
2023/04/05 07:09:10;;;;;;;12.25;10.10;;;8.30;99.90;;;;;;5095662;28;20091;-62
2023/04/05 07:11:38;;;;;;;10.88;9.60;;;7.90;99.90;;;;;;5094712;28;20102;-63
2023/04/05 07:14:05;;;;;;;12.70;8.93;;;7.70;99.90;;;;;;5094716;28;20052;-63
2023/04/05 07:16:31;;;;;;;12.57;9.15;;;7.40;99.90;;;;;;5094248;28;20052;-63
2023/04/05 07:18:57;;;;;;;11.07;9.43;;;7.30;99.90;;;;;;5095176;28;20105;-63
2023/04/05 07:21:30;;;;;;;11.52;9.80;;;7.20;99.90;;;;;;5094853;28;20410;-63
2023/04/05 07:23:59;;;;;;;13.27;9.70;;;7.10;99.90;;;;;;5093807;28;20541;-64
2023/04/05 07:26:34;;;;;;;11.48;9.27;;;7.00;99.90;;;;;;5093721;28;20137;-62
2023/04/05 07:29:01;;;;;;;12.23;8.77;;;7.00;99.90;;;;;;5094947;28;20141;-62
2023/04/05 07:31:34;;;;;;;13.10;8.82;;;7.10;99.90;;;;;;5094413;28;20127;-62
2023/04/05 07:34:01;;;;;;;14.07;9.50;;;7.20;99.90;;;;;;5095052;28;20052;-63
2023/04/05 07:36:30;;;;;;;11.38;8.60;;;7.20;99.90;;;;;;5094256;28;20047;-63
2023/04/05 07:38:57;;;;;;;12.25;8.15;;;7.30;99.90;;;;;;5094612;28;20430;-63
2023/04/05 07:41:31;;;;;;;10.18;8.48;;;7.40;99.90;;;;;;5094755;28;20072;-63
2023/04/05 07:44:05;;;;;;;13.27;10.50;;;7.40;99.90;;;;;;5094028;28;20501;-62
2023/04/05 07:46:31;;;;;;;12.23;8.07;;;7.30;99.90;;;;;;5093914;28;20591;-63
2023/04/05 07:48:58;;;;;;;13.38;9.35;;;7.40;99.90;;;;;;5094612;28;20051;-64
2023/04/05 07:51:25;;;;;;;12.20;9.73;;;7.40;99.90;;;;;;5094725;28;20136;-64
2023/04/05 07:53:51;;;;;;;11.05;8.75;;;7.40;99.90;;;;;;5094001;28;20075;-63
2023/04/05 07:56:17;;;;;;;13.18;8.90;;;7.50;99.90;;;;;;5094246;28;20044;-62
2023/04/05 07:58:53;;;;;;;9.98;8.32;;;7.50;99.90;;;;;;5094619;28;20066;-62
2023/04/05 08:01:26;;;;;;;10.70;7.75;;;7.60;99.90;;;;;;5094019;28;20044;-62
2023/04/05 08:03:53;;;;;;;10.90;7.95;;;7.70;99.90;;;;;;5093570;28;20048;-64
2023/04/05 08:06:20;;;;;;;11.45;8.77;;;7.80;99.90;;;;;;5093780;28;20055;-63
2023/04/05 08:08:46;;;;;;;10.65;7.63;;;7.80;99.90;;;;;;5093629;28;20434;-62
2023/04/05 08:11:12;;;;;;;10.73;7.90;;;7.80;99.90;;;;;;5093663;28;20083;-63
2023/04/05 08:13:43;;;;;;;10.48;8.10;;;7.90;99.90;;;;;;5075963;28;20087;-64
2023/04/05 08:16:10;;;;;;;9.55;7.18;;;8.00;99.90;;;;;;5093372;28;20056;-62
2023/04/05 08:18:37;;;;;;;11.02;7.43;;;8.20;99.90;;;;;;5093647;28;20083;-63
2023/04/05 08:21:03;;;;;;;10.88;7.60;;;8.30;99.90;;;;;;5094085;28;20101;-63
2023/04/05 08:23:31;;;;;;;11.80;7.05;;;8.30;99.90;;;;;;5093595;28;20048;-63
2023/04/05 08:26:10;;;;;;;12.75;7.60;;;8.50;99.90;;;;;;5093327;28;20048;-64
2023/04/05 08:28:43;;;;;;;9.02;6.25;;;8.60;99.90;;;;;;5092325;28;20079;-63
2023/04/05 08:31:09;;;;;;;8.70;6.13;;;8.60;99.90;;;;;;5093052;28;20052;-62
2023/04/05 08:33:36;;;;;;;8.73;6.68;;;8.70;99.90;;;;;;5093562;28;20080;-63
2023/04/05 08:36:04;;;;;;;10.77;7.55;;;8.70;99.90;;;;;;5092919;28;20044;-63
2023/04/05 08:38:30;;;;;;;11.48;7.68;;;8.80;99.90;;;;;;5093477;28;20102;-63
2023/04/05 08:41:08;;;;;;;10.02;6.65;;;8.90;99.90;;;;;;5093273;28;20044;-63
2023/04/05 08:43:37;;;;;;;10.32;6.45;;;9.00;99.40;;;;;;5075553;28;20369;-62
2023/04/05 08:46:08;;;;;;;9.55;8.05;;;9.10;99.90;;;;;;5092336;28;20040;-62
2023/04/05 08:48:35;;;;;;;8.20;6.35;;;9.10;99.90;;;;;;5093394;28;20074;-63
2023/04/05 08:51:02;;;;;;;11.27;7.45;;;9.10;99.90;;;;;;5093038;28;20055;-62
2023/04/05 08:53:28;;;;;;;7.78;6.97;;;9.20;99.90;;;;;;5093061;28;20193;-63
2023/04/05 08:56:03;;;;;;;11.18;6.93;;;9.10;99.90;;;;;;5083034;28;20044;-63
2023/04/05 08:58:33;;;;;;;11.77;6.93;;;9.10;99.70;;;;;;5092704;28;20444;-64
2023/04/05 09:01:04;;;;;;;8.57;6.13;;;9.40;99.90;;;;;;5093088;28;20154;-63
2023/04/05 09:03:36;;;;;;;6.85;5.70;;;9.40;99.90;;;;;;5074840;28;20112;-63
2023/04/05 09:06:06;;;;;;;7.88;5.80;;;9.40;99.20;;;;;;5092400;28;20043;-62
2023/04/05 09:08:33;;;;;;;8.77;6.28;;;9.50;99.70;;;;;;5093000;28;20127;-62
2023/04/05 09:11:00;;;;;;;9.50;6.38;;;9.50;99.90;;;;;;5086561;28;20048;-64
2023/04/05 09:13:29;;;;;;;9.82;6.63;;;9.40;99.00;;;;;;5055064;28;20063;-63
2023/04/05 09:15:56;;;;;;;9.07;6.70;;;9.50;99.70;;;;;;5082467;28;20048;-63
2023/04/05 09:18:22;;;;;;;8.68;6.28;;;9.60;99.70;;;;;;5092576;28;20044;-63
2023/04/05 09:20:49;;;;;;;7.90;6.25;;;9.60;99.10;;;;;;5092926;28;20076;-62
2023/04/05 09:23:15;;;;;;;9.05;5.90;;;9.50;99.60;;;;;;5092170;28;20050;-63
2023/04/05 09:25:51;;;;;;;10.77;7.82;;;9.60;99.40;;;;;;5092021;28;20073;-63
2023/04/05 09:28:18;;;;;;;8.05;6.22;;;9.70;98.50;;;;;;5092157;28;20088;-63
2023/04/05 09:30:46;;;;;;;7.65;6.72;;;9.80;96.70;;;;;;5092617;28;20058;-62
2023/04/05 09:33:18;;;;;;;10.77;6.22;;;10.00;98.20;;;;;;5092720;28;20153;-62
2023/04/05 09:35:49;;;;;;;9.05;6.28;;;10.00;98.40;;;;;;5091374;28;20059;-63
2023/04/05 09:38:15;;;;;;;11.23;6.72;;;10.00;97.90;;;;;;5092489;28;20101;-62
2023/04/05 09:40:51;;;;;;;9.05;7.18;;;9.90;98.30;;;;;;5092631;28;20040;-63
2023/04/05 09:43:41;;;;;;;8.18;6.38;;;10.10;98.10;;;;;;5074773;28;20112;-63
2023/04/05 09:46:33;;;;;;;9.60;6.97;;;10.10;97.30;;;;;;5092177;28;20091;-63
2023/04/05 09:49:08;;;;;;;9.02;6.78;;;10.00;97.30;;;;;;5072233;28;20417;-63
2023/04/05 09:51:42;;;;;;;9.60;6.57;;;9.90;97.90;;;;;;5072389;28;20082;-63
2023/04/05 09:54:10;;;;;;;10.65;7.28;;;10.00;97.90;;;;;;5076617;28;20365;-62
2023/04/05 09:56:38;;;;;;;8.63;7.03;;;10.10;97.80;;;;;;5092278;28;20052;-63
2023/04/05 09:59:10;;;;;;;7.85;6.38;;;10.00;97.50;;;;;;5092257;28;20106;-62
2023/04/05 10:01:38;;;;;;;9.48;6.05;;;10.10;97.70;;;;;;5092440;28;20040;-64
2023/04/05 10:04:04;;;;;;;7.10;5.75;;;10.20;98.20;;;;;;5092301;28;20048;-62
2023/04/05 10:06:39;;;;;;;9.80;5.88;;;10.40;97.80;;;;;;5092063;28;20535;-63
2023/04/05 10:09:07;;;;;;;10.50;6.95;;;10.50;97.10;;;;;;5092653;28;20052;-62
2023/04/05 10:11:36;;;;;;;8.95;6.93;;;10.60;96.30;;;;;;5092232;28;20056;-62
2023/04/05 10:14:05;;;;;;;11.00;7.10;;;10.70;94.70;;;;;;5074011;28;20063;-63
2023/04/05 10:16:50;;;;;;;9.15;7.13;;;10.80;95.20;;;;;;5092286;28;20109;-62
2023/04/05 10:19:31;;;;;;;9.43;6.68;;;10.70;95.00;;;;;;5092295;28;20080;-64
2023/04/05 10:22:12;;;;;;;9.48;6.28;;;10.70;94.70;;;;;;5092236;28;20047;-64
2023/04/05 10:25:02;;;;;;;8.07;7.25;;;10.70;94.40;;;;;;5091835;28;20090;-63
2023/04/05 10:27:46;;;;;;;8.23;6.22;;;10.70;94.10;;;;;;5071652;28;20044;-63
2023/04/05 10:30:15;;;;;;;9.80;6.43;;;10.90;95.00;;;;;;5072124;28;20380;-62
2023/04/05 10:32:53;;;;;;;7.47;6.05;;;10.80;94.90;;;;;;5071802;28;20084;-63
2023/04/05 10:35:51;;;;;;;7.53;6.82;;;10.60;94.70;;;;;;5078864;28;20464;-63
2023/04/05 10:38:26;;;;;;;8.32;6.95;;;10.80;94.60;;;;;;5095651;28;20060;-62
2023/04/05 10:41:15;;;;;;;8.25;6.38;;;10.90;94.00;;;;;;5096064;28;20048;-63
2023/04/05 10:43:44;;;;;;;9.02;5.75;;;10.90;92.90;;;;;;5095385;28;20127;-63
2023/04/05 10:46:13;;;;;;;8.68;6.72;;;11.00;94.20;;;;;;5095444;28;20475;-63
2023/04/05 10:48:48;;;;;;;7.88;6.10;;;11.10;93.00;;;;;;5095851;28;20083;-62
2023/04/05 10:51:17;;;;;;;8.73;5.57;;;11.20;93.40;;;;;;5095878;28;20052;-63
2023/04/05 10:53:45;;;;;;;8.25;6.15;;;11.20;94.00;;;;;;5095007;28;20472;-62
2023/04/05 10:56:12;;;;;;;8.48;6.40;;;11.30;94.30;;;;;;5095531;28;20423;-62
2023/04/05 10:58:41;;;;;;;8.27;5.78;;;11.20;92.90;;;;;;5095548;28;20048;-62
2023/04/05 11:01:08;;;;;;;6.80;5.75;;;11.20;93.80;;;;;;5094863;28;20076;-63
2023/04/05 11:03:55;;;;;;;8.68;6.93;;;11.20;93.50;;;;;;5094286;28;20126;-62
2023/04/05 11:06:28;;;;;;;6.80;5.55;;;11.10;92.60;;;;;;5094478;28;20044;-62
2023/04/05 11:09:00;;;;;;;6.18;5.15;;;11.30;92.80;;;;;;5094902;28;20348;-63
2023/04/05 11:11:26;;;;;;;8.90;5.57;;;11.00;92.60;;;;;;5092810;28;20118;-61
2023/04/05 11:14:00;;;;;;;6.80;6.10;;;11.10;93.40;;;;;;5094805;28;20066;-63
2023/04/05 11:16:38;;;;;;;7.20;6.00;;;11.30;92.40;;;;;;5094318;28;20120;-62
2023/04/05 11:19:05;;;;;;;8.35;5.25;;;11.60;92.20;;;;;;5094722;28;20079;-63
2023/04/05 11:21:31;;;;;;;7.38;5.55;;;11.60;91.80;;;;;;5094433;28;20127;-63
2023/04/05 11:24:06;;;;;;;7.57;4.68;;;11.80;91.70;;;;;;5094064;28;20071;-62
2023/04/05 11:26:55;;;;;;;7.00;4.97;;;11.80;91.50;;;;;;5093443;28;20084;-63
2023/04/05 11:29:46;;;;;;;8.10;5.60;;;11.80;91.40;;;;;;5094596;28;20079;-62
2023/04/05 11:32:12;;;;;;;7.25;5.50;;;11.80;91.30;;;;;;5083853;28;20050;-62
2023/04/05 11:34:48;;;;;;;6.93;5.53;;;11.70;91.80;;;;;;5093846;28;20464;-61
2023/04/05 11:37:21;;;;;;;6.72;5.70;;;11.60;92.10;;;;;;5073965;28;20098;-63
2023/04/05 11:39:50;;;;;;;7.20;5.00;;;11.40;91.30;;;;;;5073493;28;20412;-63
2023/04/05 11:42:23;;;;;;;6.22;5.63;;;11.30;91.80;;;;;;5073959;28;20041;-63
2023/04/05 11:44:52;;;;;;;8.05;5.13;;;11.50;92.20;;;;;;5055311;28;20056;-62
2023/04/05 11:47:22;;;;;;;7.75;5.18;;;11.50;91.70;;;;;;5072976;28;20330;-62
2023/04/05 11:49:49;;;;;;;7.70;4.97;;;11.60;92.10;;;;;;5073341;28;20507;-62
2023/04/05 11:52:19;;;;;;;6.18;4.65;;;11.40;92.00;;;;;;5073862;28;20044;-62
2023/04/05 11:54:46;;;;;;;8.68;5.40;;;11.50;91.00;;;;;;5045611;28;20080;-62
2023/04/05 11:57:14;;;;;;;8.02;5.30;;;11.60;91.90;;;;;;5073609;28;20044;-63
2023/04/05 11:59:43;;;;;;;8.88;5.55;;;11.60;91.80;;;;;;5073660;28;20457;-63
2023/04/05 12:02:09;;;;;;;7.30;5.53;;;11.70;91.20;;;;;;5074160;28;20049;-64
2023/04/05 12:04:37;;;;;;;5.95;4.50;;;11.70;91.60;;;;;;5073838;28;20083;-63
2023/04/05 12:07:07;;;;;;;8.63;5.80;;;11.70;91.30;;;;;;5073625;28;20437;-63
2023/04/05 12:09:33;;;;;;;7.97;5.93;;;11.70;91.30;;;;;;5074096;28;20076;-63
2023/04/05 12:12:15;;;;;;;7.15;5.25;;;11.70;91.80;;;;;;5073955;28;20524;-64
2023/04/05 12:14:47;;;;;;;6.60;5.45;;;11.60;90.90;;;;;;5055852;28;20056;-63
2023/04/05 12:17:13;;;;;;;8.38;5.38;;;11.60;91.80;;;;;;5073449;28;20058;-64
2023/04/05 12:19:41;;;;;;;7.07;6.38;;;11.60;91.90;;;;;;5073444;28;20427;-64
2023/04/05 12:22:07;;;;;;;6.57;5.70;;;11.70;91.00;;;;;;5074121;28;20107;-64
2023/04/05 12:24:34;;;;;;;6.55;5.57;;;11.70;91.20;;;;;;5073386;28;20040;-63
2023/04/05 12:27:01;;;;;;;8.68;5.78;;;11.90;91.70;;;;;;5058454;28;20043;-63
2023/04/05 12:29:28;;;;;;;6.50;5.40;;;11.80;90.90;;;;;;5114343;28;20043;-64
2023/04/05 12:31:56;;;;;;;6.40;5.78;;;11.90;91.20;;;;;;5114054;28;20055;-63
2023/04/05 12:34:26;;;;;;;7.70;6.25;;;11.90;91.10;;;;;;5113735;28;20087;-64
2023/04/05 12:36:53;;;;;;;6.30;5.60;;;11.80;90.70;;;;;;5113907;28;20047;-63
2023/04/05 12:39:23;;;;;;;8.40;6.20;;;11.80;91.20;;;;;;5113999;28;20048;-63
2023/04/05 12:41:57;;;;;;;8.73;5.90;;;11.80;90.80;;;;;;5113924;28;20051;-62
2023/04/05 12:44:31;;;;;;;6.80;4.93;;;11.80;90.40;;;;;;5113047;28;20379;-63
2023/04/05 12:47:04;;;;;;;6.05;5.15;;;11.80;90.90;;;;;;5113790;28;20073;-63
2023/04/05 12:49:36;;;;;;;6.80;5.30;;;11.90;90.70;;;;;;5113869;28;20086;-64
2023/04/05 12:52:03;;;;;;;6.25;5.07;;;11.90;90.50;;;;;;5113823;28;20474;-63
2023/04/05 12:54:32;;;;;;;6.50;5.20;;;11.90;90.80;;;;;;5095203;28;20363;-63
2023/04/05 12:57:03;;;;;;;8.25;5.68;;;12.00;91.00;;;;;;5112592;28;20112;-62
2023/04/05 12:59:29;;;;;;;8.55;5.20;;;12.00;90.30;;;;;;5113780;28;20039;-63
2023/04/05 13:02:02;;;;;;;6.65;5.80;;;12.10;90.90;;;;;;5112922;28;20487;-63
2023/04/05 13:04:28;;;;;;;6.45;5.50;;;12.00;91.10;;;;;;5112588;28;20353;-63
2023/04/05 13:06:55;;;;;;;7.30;5.78;;;12.00;90.70;;;;;;5094691;28;20059;-62